sensor_id;sensor_type;location;lat;lon;timestamp;P1;durP1;ratioP1;P2;durP2;ratioP2
8098;SDS011;4092;47.876;9.372;2024-02-26T00:00:39;1.50;;;0.70;;
8098;SDS011;4092;47.876;9.372;2024-02-26T00:03:06;1.80;;;0.87;;
8098;SDS011;4092;47.876;9.372;2024-02-26T00:05:33;1.00;;;0.80;;
8098;SDS011;4092;47.876;9.372;2024-02-26T00:08:00;1.07;;;0.80;;
8098;SDS011;4092;47.876;9.372;2024-02-26T00:10:27;1.00;;;0.70;;
8098;SDS011;4092;47.876;9.372;2024-02-26T00:12:54;1.00;;;0.80;;
8098;SDS011;4092;47.876;9.372;2024-02-26T00:15:23;1.20;;;1.00;;
8098;SDS011;4092;47.876;9.372;2024-02-26T00:17:50;1.10;;;0.80;;
8098;SDS011;4092;47.876;9.372;2024-02-26T00:20:17;1.00;;;0.80;;
8098;SDS011;4092;47.876;9.372;2024-02-26T00:22:44;1.00;;;0.70;;
8098;SDS011;4092;47.876;9.372;2024-02-26T00:25:11;1.10;;;1.00;;
8098;SDS011;4092;47.876;9.372;2024-02-26T00:27:38;1.00;;;0.73;;
8098;SDS011;4092;47.876;9.372;2024-02-26T00:30:07;1.03;;;0.80;;
8098;SDS011;4092;47.876;9.372;2024-02-26T00:32:36;1.00;;;0.80;;
8098;SDS011;4092;47.876;9.372;2024-02-26T00:35:03;1.40;;;0.90;;
8098;SDS011;4092;47.876;9.372;2024-02-26T00:37:30;1.00;;;0.77;;
8098;SDS011;4092;47.876;9.372;2024-02-26T00:39:57;1.30;;;0.80;;
8098;SDS011;4092;47.876;9.372;2024-02-26T00:42:24;4.10;;;1.07;;
8098;SDS011;4092;47.876;9.372;2024-02-26T00:44:51;1.50;;;1.03;;
8098;SDS011;4092;47.876;9.372;2024-02-26T00:47:18;0.90;;;0.70;;
8098;SDS011;4092;47.876;9.372;2024-02-26T00:49:46;1.10;;;0.80;;
8098;SDS011;4092;47.876;9.372;2024-02-26T00:52:13;1.00;;;0.80;;
8098;SDS011;4092;47.876;9.372;2024-02-26T00:54:40;1.67;;;0.90;;
8098;SDS011;4092;47.876;9.372;2024-02-26T00:57:07;1.00;;;0.77;;
8098;SDS011;4092;47.876;9.372;2024-02-26T00:59:35;1.17;;;0.77;;
8098;SDS011;4092;47.876;9.372;2024-02-26T01:02:02;1.00;;;0.73;;
8098;SDS011;4092;47.876;9.372;2024-02-26T01:04:31;1.00;;;0.80;;
8098;SDS011;4092;47.876;9.372;2024-02-26T01:07:00;3.03;;;0.93;;
8098;SDS011;4092;47.876;9.372;2024-02-26T01:09:28;3.53;;;1.63;;
8098;SDS011;4092;47.876;9.372;2024-02-26T01:11:55;2.23;;;0.97;;
8098;SDS011;4092;47.876;9.372;2024-02-26T01:14:22;1.47;;;1.00;;
8098;SDS011;4092;47.876;9.372;2024-02-26T01:16:49;1.00;;;0.80;;
8098;SDS011;4092;47.876;9.372;2024-02-26T01:19:16;1.00;;;0.70;;
8098;SDS011;4092;47.876;9.372;2024-02-26T01:21:43;1.00;;;0.90;;
8098;SDS011;4092;47.876;9.372;2024-02-26T01:24:11;1.60;;;0.87;;
8098;SDS011;4092;47.876;9.372;2024-02-26T01:26:38;0.90;;;0.60;;
8098;SDS011;4092;47.876;9.372;2024-02-26T01:29:05;1.20;;;0.70;;
8098;SDS011;4092;47.876;9.372;2024-02-26T01:31:32;0.90;;;0.60;;
8098;SDS011;4092;47.876;9.372;2024-02-26T01:33:59;1.30;;;0.80;;
8098;SDS011;4092;47.876;9.372;2024-02-26T01:36:26;1.37;;;0.80;;
8098;SDS011;4092;47.876;9.372;2024-02-26T01:38:53;1.47;;;1.03;;
8098;SDS011;4092;47.876;9.372;2024-02-26T01:41:22;1.10;;;0.70;;
8098;SDS011;4092;47.876;9.372;2024-02-26T01:43:49;0.93;;;0.70;;
8098;SDS011;4092;47.876;9.372;2024-02-26T01:46:16;0.97;;;0.70;;
8098;SDS011;4092;47.876;9.372;2024-02-26T01:48:44;1.70;;;1.10;;
8098;SDS011;4092;47.876;9.372;2024-02-26T01:51:15;1.17;;;0.80;;
8098;SDS011;4092;47.876;9.372;2024-02-26T01:53:43;1.00;;;0.70;;
8098;SDS011;4092;47.876;9.372;2024-02-26T01:56:10;1.00;;;0.70;;
8098;SDS011;4092;47.876;9.372;2024-02-26T01:58:39;1.30;;;0.90;;
8098;SDS011;4092;47.876;9.372;2024-02-26T02:01:07;1.20;;;0.77;;
8098;SDS011;4092;47.876;9.372;2024-02-26T02:03:34;2.40;;;1.00;;
8098;SDS011;4092;47.876;9.372;2024-02-26T02:06:03;2.30;;;0.90;;
8098;SDS011;4092;47.876;9.372;2024-02-26T02:08:30;1.10;;;0.90;;
8098;SDS011;4092;47.876;9.372;2024-02-26T02:11:00;1.50;;;0.70;;
8098;SDS011;4092;47.876;9.372;2024-02-26T02:13:28;1.20;;;0.80;;
8098;SDS011;4092;47.876;9.372;2024-02-26T02:15:56;1.03;;;0.83;;
8098;SDS011;4092;47.876;9.372;2024-02-26T02:18:24;1.00;;;0.80;;
8098;SDS011;4092;47.876;9.372;2024-02-26T02:20:52;0.90;;;0.70;;
8098;SDS011;4092;47.876;9.372;2024-02-26T02:23:21;1.00;;;0.70;;
8098;SDS011;4092;47.876;9.372;2024-02-26T02:25:48;1.83;;;0.80;;
8098;SDS011;4092;47.876;9.372;2024-02-26T02:28:15;1.80;;;1.00;;
8098;SDS011;4092;47.876;9.372;2024-02-26T02:30:42;3.20;;;0.90;;
8098;SDS011;4092;47.876;9.372;2024-02-26T02:33:09;2.90;;;1.10;;
8098;SDS011;4092;47.876;9.372;2024-02-26T02:35:37;1.57;;;1.00;;
8098;SDS011;4092;47.876;9.372;2024-02-26T02:38:06;1.10;;;0.60;;
8098;SDS011;4092;47.876;9.372;2024-02-26T02:40:33;1.87;;;0.70;;
8098;SDS011;4092;47.876;9.372;2024-02-26T02:42:59;1.63;;;0.83;;
8098;SDS011;4092;47.876;9.372;2024-02-26T02:45:27;1.77;;;0.90;;
8098;SDS011;4092;47.876;9.372;2024-02-26T02:47:54;2.43;;;1.33;;
8098;SDS011;4092;47.876;9.372;2024-02-26T02:50:21;1.57;;;1.07;;
8098;SDS011;4092;47.876;9.372;2024-02-26T02:52:48;1.00;;;0.90;;
8098;SDS011;4092;47.876;9.372;2024-02-26T02:55:16;1.00;;;0.80;;
8098;SDS011;4092;47.876;9.372;2024-02-26T02:57:44;1.17;;;1.00;;
8098;SDS011;4092;47.876;9.372;2024-02-26T03:00:11;2.17;;;1.37;;
8098;SDS011;4092;47.876;9.372;2024-02-26T03:02:39;1.73;;;1.37;;
8098;SDS011;4092;47.876;9.372;2024-02-26T03:05:06;1.00;;;0.83;;
8098;SDS011;4092;47.876;9.372;2024-02-26T03:07:33;1.80;;;1.03;;
8098;SDS011;4092;47.876;9.372;2024-02-26T03:10:00;1.10;;;0.90;;
8098;SDS011;4092;47.876;9.372;2024-02-26T03:12:29;2.20;;;1.10;;
8098;SDS011;4092;47.876;9.372;2024-02-26T03:14:56;5.33;;;1.00;;
8098;SDS011;4092;47.876;9.372;2024-02-26T03:17:25;1.50;;;0.80;;
8098;SDS011;4092;47.876;9.372;2024-02-26T03:19:52;1.40;;;1.10;;
8098;SDS011;4092;47.876;9.372;2024-02-26T03:22:19;2.30;;;0.90;;
8098;SDS011;4092;47.876;9.372;2024-02-26T03:24:46;1.63;;;1.23;;
8098;SDS011;4092;47.876;9.372;2024-02-26T03:27:14;1.30;;;0.90;;
8098;SDS011;4092;47.876;9.372;2024-02-26T03:29:42;1.47;;;1.17;;
8098;SDS011;4092;47.876;9.372;2024-02-26T03:32:09;1.47;;;1.13;;
8098;SDS011;4092;47.876;9.372;2024-02-26T03:34:36;1.23;;;1.13;;
8098;SDS011;4092;47.876;9.372;2024-02-26T03:37:04;1.00;;;0.80;;
8098;SDS011;4092;47.876;9.372;2024-02-26T03:39:31;2.03;;;1.37;;
8098;SDS011;4092;47.876;9.372;2024-02-26T03:41:58;1.40;;;1.10;;
8098;SDS011;4092;47.876;9.372;2024-02-26T03:44:25;1.37;;;1.10;;
8098;SDS011;4092;47.876;9.372;2024-02-26T03:46:53;1.57;;;1.20;;
8098;SDS011;4092;47.876;9.372;2024-02-26T03:49:20;1.40;;;1.00;;
8098;SDS011;4092;47.876;9.372;2024-02-26T03:51:48;3.87;;;1.57;;
8098;SDS011;4092;47.876;9.372;2024-02-26T03:54:15;1.70;;;0.90;;
8098;SDS011;4092;47.876;9.372;2024-02-26T03:56:42;1.37;;;0.90;;
8098;SDS011;4092;47.876;9.372;2024-02-26T03:59:09;2.13;;;1.53;;
8098;SDS011;4092;47.876;9.372;2024-02-26T04:01:36;2.23;;;1.00;;
8098;SDS011;4092;47.876;9.372;2024-02-26T04:04:04;1.10;;;0.93;;
8098;SDS011;4092;47.876;9.372;2024-02-26T04:06:31;1.83;;;1.40;;
8098;SDS011;4092;47.876;9.372;2024-02-26T04:08:58;1.10;;;1.00;;
8098;SDS011;4092;47.876;9.372;2024-02-26T04:11:26;1.23;;;1.00;;
8098;SDS011;4092;47.876;9.372;2024-02-26T04:13:53;1.00;;;0.80;;
8098;SDS011;4092;47.876;9.372;2024-02-26T04:16:20;1.27;;;0.80;;
8098;SDS011;4092;47.876;9.372;2024-02-26T04:18:46;1.17;;;0.80;;
8098;SDS011;4092;47.876;9.372;2024-02-26T04:21:15;2.60;;;2.23;;
8098;SDS011;4092;47.876;9.372;2024-02-26T04:23:43;1.90;;;1.20;;
8098;SDS011;4092;47.876;9.372;2024-02-26T04:26:10;2.17;;;1.37;;
8098;SDS011;4092;47.876;9.372;2024-02-26T04:28:37;1.93;;;1.53;;
8098;SDS011;4092;47.876;9.372;2024-02-26T04:31:04;1.57;;;1.47;;
8098;SDS011;4092;47.876;9.372;2024-02-26T04:33:33;1.97;;;1.80;;
8098;SDS011;4092;47.876;9.372;2024-02-26T04:36:01;1.47;;;1.37;;
8098;SDS011;4092;47.876;9.372;2024-02-26T04:38:30;2.30;;;1.90;;
8098;SDS011;4092;47.876;9.372;2024-02-26T04:40:57;6.47;;;2.50;;
8098;SDS011;4092;47.876;9.372;2024-02-26T04:43:24;2.23;;;1.60;;
8098;SDS011;4092;47.876;9.372;2024-02-26T04:45:51;3.20;;;1.70;;
8098;SDS011;4092;47.876;9.372;2024-02-26T04:48:19;2.27;;;2.07;;
8098;SDS011;4092;47.876;9.372;2024-02-26T04:50:46;4.50;;;1.73;;
8098;SDS011;4092;47.876;9.372;2024-02-26T04:53:13;1.40;;;1.30;;
8098;SDS011;4092;47.876;9.372;2024-02-26T04:55:42;1.20;;;1.10;;
8098;SDS011;4092;47.876;9.372;2024-02-26T04:58:09;1.70;;;1.20;;
8098;SDS011;4092;47.876;9.372;2024-02-26T05:00:36;1.53;;;1.43;;
8098;SDS011;4092;47.876;9.372;2024-02-26T05:03:03;2.27;;;1.30;;
8098;SDS011;4092;47.876;9.372;2024-02-26T05:05:30;2.73;;;1.43;;
8098;SDS011;4092;47.876;9.372;2024-02-26T05:07:57;1.20;;;1.10;;
8098;SDS011;4092;47.876;9.372;2024-02-26T05:10:24;1.97;;;1.40;;
8098;SDS011;4092;47.876;9.372;2024-02-26T05:12:53;4.70;;;1.73;;
8098;SDS011;4092;47.876;9.372;2024-02-26T05:15:20;1.87;;;1.53;;
8098;SDS011;4092;47.876;9.372;2024-02-26T05:17:47;1.63;;;1.40;;
8098;SDS011;4092;47.876;9.372;2024-02-26T05:20:14;2.67;;;1.23;;
8098;SDS011;4092;47.876;9.372;2024-02-26T05:22:41;1.60;;;1.47;;
8098;SDS011;4092;47.876;9.372;2024-02-26T05:25:08;3.23;;;1.83;;
8098;SDS011;4092;47.876;9.372;2024-02-26T05:27:35;3.30;;;2.50;;
8098;SDS011;4092;47.876;9.372;2024-02-26T05:30:04;2.00;;;1.80;;
8098;SDS011;4092;47.876;9.372;2024-02-26T05:32:32;3.43;;;2.33;;
8098;SDS011;4092;47.876;9.372;2024-02-26T05:34:59;5.90;;;3.43;;
8098;SDS011;4092;47.876;9.372;2024-02-26T05:37:28;1.97;;;1.53;;
8098;SDS011;4092;47.876;9.372;2024-02-26T05:39:55;1.87;;;1.70;;
8098;SDS011;4092;47.876;9.372;2024-02-26T05:42:22;2.87;;;2.67;;
8098;SDS011;4092;47.876;9.372;2024-02-26T05:44:49;3.83;;;1.70;;
8098;SDS011;4092;47.876;9.372;2024-02-26T05:47:17;3.83;;;2.57;;
8098;SDS011;4092;47.876;9.372;2024-02-26T05:49:44;2.27;;;1.87;;
8098;SDS011;4092;47.876;9.372;2024-02-26T05:52:11;3.03;;;1.80;;
8098;SDS011;4092;47.876;9.372;2024-02-26T05:54:38;2.43;;;1.67;;
8098;SDS011;4092;47.876;9.372;2024-02-26T05:57:05;2.20;;;1.70;;
8098;SDS011;4092;47.876;9.372;2024-02-26T05:59:32;3.93;;;2.23;;
8098;SDS011;4092;47.876;9.372;2024-02-26T06:01:59;2.97;;;1.80;;
8098;SDS011;4092;47.876;9.372;2024-02-26T06:04:27;2.83;;;2.53;;
8098;SDS011;4092;47.876;9.372;2024-02-26T06:06:54;6.40;;;2.43;;
8098;SDS011;4092;47.876;9.372;2024-02-26T06:09:22;3.20;;;2.13;;
8098;SDS011;4092;47.876;9.372;2024-02-26T06:11:49;2.70;;;1.23;;
8098;SDS011;4092;47.876;9.372;2024-02-26T06:14:16;3.57;;;2.93;;
8098;SDS011;4092;47.876;9.372;2024-02-26T06:16:44;3.17;;;1.90;;
8098;SDS011;4092;47.876;9.372;2024-02-26T06:19:11;2.27;;;1.60;;
8098;SDS011;4092;47.876;9.372;2024-02-26T06:21:40;2.17;;;1.77;;
8098;SDS011;4092;47.876;9.372;2024-02-26T06:24:07;3.00;;;2.70;;
8098;SDS011;4092;47.876;9.372;2024-02-26T06:26:34;9.50;;;3.73;;
8098;SDS011;4092;47.876;9.372;2024-02-26T06:29:01;3.77;;;3.30;;
8098;SDS011;4092;47.876;9.372;2024-02-26T06:31:28;2.90;;;2.40;;
8098;SDS011;4092;47.876;9.372;2024-02-26T06:33:55;3.90;;;2.60;;
8098;SDS011;4092;47.876;9.372;2024-02-26T06:36:22;2.73;;;2.50;;
8098;SDS011;4092;47.876;9.372;2024-02-26T06:38:50;4.10;;;1.93;;
8098;SDS011;4092;47.876;9.372;2024-02-26T06:41:19;3.60;;;2.40;;
8098;SDS011;4092;47.876;9.372;2024-02-26T06:43:46;21.70;;;14.13;;
8098;SDS011;4092;47.876;9.372;2024-02-26T06:46:13;5.63;;;4.13;;
8098;SDS011;4092;47.876;9.372;2024-02-26T06:48:40;7.33;;;3.53;;
8098;SDS011;4092;47.876;9.372;2024-02-26T06:51:07;4.03;;;2.87;;
8098;SDS011;4092;47.876;9.372;2024-02-26T06:53:34;4.13;;;3.03;;
8098;SDS011;4092;47.876;9.372;2024-02-26T06:56:03;12.70;;;6.87;;
8098;SDS011;4092;47.876;9.372;2024-02-26T06:58:30;10.60;;;6.87;;
8098;SDS011;4092;47.876;9.372;2024-02-26T07:00:58;3.03;;;2.70;;
8098;SDS011;4092;47.876;9.372;2024-02-26T07:03:25;2.57;;;2.37;;
8098;SDS011;4092;47.876;9.372;2024-02-26T07:05:52;2.80;;;1.77;;
8098;SDS011;4092;47.876;9.372;2024-02-26T07:08:20;5.50;;;3.53;;
8098;SDS011;4092;47.876;9.372;2024-02-26T07:10:47;7.03;;;2.90;;
8098;SDS011;4092;47.876;9.372;2024-02-26T07:13:15;5.90;;;3.90;;
8098;SDS011;4092;47.876;9.372;2024-02-26T07:15:42;4.27;;;3.40;;
8098;SDS011;4092;47.876;9.372;2024-02-26T07:18:09;4.00;;;3.40;;
8098;SDS011;4092;47.876;9.372;2024-02-26T07:20:36;7.77;;;2.40;;
8098;SDS011;4092;47.876;9.372;2024-02-26T07:23:03;4.90;;;3.17;;
8098;SDS011;4092;47.876;9.372;2024-02-26T07:25:31;4.10;;;2.57;;
8098;SDS011;4092;47.876;9.372;2024-02-26T07:27:58;6.50;;;3.20;;
8098;SDS011;4092;47.876;9.372;2024-02-26T07:30:27;7.10;;;4.00;;
8098;SDS011;4092;47.876;9.372;2024-02-26T07:32:54;5.90;;;3.83;;
8098;SDS011;4092;47.876;9.372;2024-02-26T07:35:21;5.20;;;3.00;;
8098;SDS011;4092;47.876;9.372;2024-02-26T07:37:48;6.30;;;4.20;;
8098;SDS011;4092;47.876;9.372;2024-02-26T07:40:16;8.40;;;5.60;;
8098;SDS011;4092;47.876;9.372;2024-02-26T07:42:43;20.30;;;11.00;;
8098;SDS011;4092;47.876;9.372;2024-02-26T07:45:10;8.87;;;7.00;;
8098;SDS011;4092;47.876;9.372;2024-02-26T07:47:38;11.40;;;8.20;;
8098;SDS011;4092;47.876;9.372;2024-02-26T07:50:07;17.07;;;10.90;;
8098;SDS011;4092;47.876;9.372;2024-02-26T07:52:34;6.60;;;3.97;;
8098;SDS011;4092;47.876;9.372;2024-02-26T07:55:01;4.70;;;3.37;;
8098;SDS011;4092;47.876;9.372;2024-02-26T07:57:28;6.60;;;4.63;;
8098;SDS011;4092;47.876;9.372;2024-02-26T07:59:55;10.60;;;8.27;;
8098;SDS011;4092;47.876;9.372;2024-02-26T08:02:22;12.53;;;8.53;;
8098;SDS011;4092;47.876;9.372;2024-02-26T08:04:51;8.07;;;6.13;;
8098;SDS011;4092;47.876;9.372;2024-02-26T08:07:18;15.67;;;10.33;;
8098;SDS011;4092;47.876;9.372;2024-02-26T08:09:46;11.47;;;6.13;;
8098;SDS011;4092;47.876;9.372;2024-02-26T08:12:13;20.87;;;14.13;;
8098;SDS011;4092;47.876;9.372;2024-02-26T08:14:40;14.77;;;11.13;;
8098;SDS011;4092;47.876;9.372;2024-02-26T08:17:07;6.87;;;4.40;;
8098;SDS011;4092;47.876;9.372;2024-02-26T08:19:34;5.33;;;3.50;;
8098;SDS011;4092;47.876;9.372;2024-02-26T08:22:03;5.90;;;4.70;;
8098;SDS011;4092;47.876;9.372;2024-02-26T08:24:30;8.63;;;5.10;;
8098;SDS011;4092;47.876;9.372;2024-02-26T08:26:57;5.87;;;3.97;;
8098;SDS011;4092;47.876;9.372;2024-02-26T08:29:24;15.23;;;9.03;;
8098;SDS011;4092;47.876;9.372;2024-02-26T08:31:51;14.43;;;8.70;;
8098;SDS011;4092;47.876;9.372;2024-02-26T08:34:18;6.30;;;4.23;;
8098;SDS011;4092;47.876;9.372;2024-02-26T08:36:45;2.60;;;2.40;;
8098;SDS011;4092;47.876;9.372;2024-02-26T08:39:15;6.60;;;4.67;;
8098;SDS011;4092;47.876;9.372;2024-02-26T08:41:42;13.23;;;6.03;;
8098;SDS011;4092;47.876;9.372;2024-02-26T08:44:09;11.97;;;6.10;;
8098;SDS011;4092;47.876;9.372;2024-02-26T08:46:36;24.30;;;11.43;;
8098;SDS011;4092;47.876;9.372;2024-02-26T08:49:03;13.60;;;5.70;;
8098;SDS011;4092;47.876;9.372;2024-02-26T08:51:30;4.50;;;4.00;;
8098;SDS011;4092;47.876;9.372;2024-02-26T08:53:57;9.73;;;6.40;;
8098;SDS011;4092;47.876;9.372;2024-02-26T08:56:26;9.50;;;5.33;;
8098;SDS011;4092;47.876;9.372;2024-02-26T08:58:53;15.00;;;6.33;;
8098;SDS011;4092;47.876;9.372;2024-02-26T09:01:21;9.93;;;5.83;;
8098;SDS011;4092;47.876;9.372;2024-02-26T09:03:49;13.60;;;4.47;;
8098;SDS011;4092;47.876;9.372;2024-02-26T09:06:16;6.03;;;4.00;;
8098;SDS011;4092;47.876;9.372;2024-02-26T09:08:43;8.07;;;4.30;;
8098;SDS011;4092;47.876;9.372;2024-02-26T09:11:10;5.80;;;3.87;;
8098;SDS011;4092;47.876;9.372;2024-02-26T09:13:38;4.73;;;3.30;;
8098;SDS011;4092;47.876;9.372;2024-02-26T09:16:06;9.40;;;5.70;;
8098;SDS011;4092;47.876;9.372;2024-02-26T09:18:33;10.17;;;4.20;;
8098;SDS011;4092;47.876;9.372;2024-02-26T09:21:03;3.37;;;2.20;;
8098;SDS011;4092;47.876;9.372;2024-02-26T09:23:30;4.60;;;3.43;;
8098;SDS011;4092;47.876;9.372;2024-02-26T09:25:57;9.37;;;3.67;;
8098;SDS011;4092;47.876;9.372;2024-02-26T09:28:24;7.70;;;3.77;;
8098;SDS011;4092;47.876;9.372;2024-02-26T09:30:53;4.37;;;3.20;;
8098;SDS011;4092;47.876;9.372;2024-02-26T09:33:20;6.00;;;3.93;;
8098;SDS011;4092;47.876;9.372;2024-02-26T09:35:47;3.43;;;2.30;;
8098;SDS011;4092;47.876;9.372;2024-02-26T09:38:14;3.50;;;2.93;;
8098;SDS011;4092;47.876;9.372;2024-02-26T09:40:41;4.10;;;2.27;;
8098;SDS011;4092;47.876;9.372;2024-02-26T09:43:08;2.33;;;1.60;;
8098;SDS011;4092;47.876;9.372;2024-02-26T09:45:41;2.87;;;1.90;;
8098;SDS011;4092;47.876;9.372;2024-02-26T09:48:10;5.40;;;2.60;;
8098;SDS011;4092;47.876;9.372;2024-02-26T09:50:40;5.70;;;3.80;;
8098;SDS011;4092;47.876;9.372;2024-02-26T09:53:08;3.67;;;2.60;;
8098;SDS011;4092;47.876;9.372;2024-02-26T09:55:37;5.90;;;3.07;;
8098;SDS011;4092;47.876;9.372;2024-02-26T09:58:04;4.00;;;2.60;;
8098;SDS011;4092;47.876;9.372;2024-02-26T10:00:32;2.70;;;2.13;;
8098;SDS011;4092;47.876;9.372;2024-02-26T10:03:04;5.20;;;2.53;;
8098;SDS011;4092;47.876;9.372;2024-02-26T10:05:34;4.90;;;3.13;;
8098;SDS011;4092;47.876;9.372;2024-02-26T10:08:04;1.73;;;1.50;;
8098;SDS011;4092;47.876;9.372;2024-02-26T10:10:31;1.83;;;1.60;;
8098;SDS011;4092;47.876;9.372;2024-02-26T10:12:59;3.53;;;2.20;;
8098;SDS011;4092;47.876;9.372;2024-02-26T10:15:26;2.13;;;1.73;;
8098;SDS011;4092;47.876;9.372;2024-02-26T10:17:53;4.43;;;2.50;;
8098;SDS011;4092;47.876;9.372;2024-02-26T10:20:21;2.40;;;1.57;;
8098;SDS011;4092;47.876;9.372;2024-02-26T10:22:50;1.60;;;1.13;;
8098;SDS011;4092;47.876;9.372;2024-02-26T10:25:17;1.97;;;1.47;;
8098;SDS011;4092;47.876;9.372;2024-02-26T10:27:45;2.20;;;1.53;;
8098;SDS011;4092;47.876;9.372;2024-02-26T10:30:15;2.13;;;1.93;;
8098;SDS011;4092;47.876;9.372;2024-02-26T10:32:44;2.07;;;1.53;;
8098;SDS011;4092;47.876;9.372;2024-02-26T10:35:12;3.20;;;1.57;;
8098;SDS011;4092;47.876;9.372;2024-02-26T10:37:39;1.83;;;1.47;;
8098;SDS011;4092;47.876;9.372;2024-02-26T10:40:10;3.90;;;2.37;;
8098;SDS011;4092;47.876;9.372;2024-02-26T10:42:38;3.50;;;2.73;;
8098;SDS011;4092;47.876;9.372;2024-02-26T10:45:05;9.60;;;5.40;;
8098;SDS011;4092;47.876;9.372;2024-02-26T10:47:34;9.30;;;6.33;;
8098;SDS011;4092;47.876;9.372;2024-02-26T10:50:01;2.63;;;2.30;;
8098;SDS011;4092;47.876;9.372;2024-02-26T10:52:30;5.47;;;3.00;;
8098;SDS011;4092;47.876;9.372;2024-02-26T10:55:00;3.40;;;2.10;;
8098;SDS011;4092;47.876;9.372;2024-02-26T10:57:31;4.17;;;2.67;;
8098;SDS011;4092;47.876;9.372;2024-02-26T11:00:00;2.87;;;2.27;;
8098;SDS011;4092;47.876;9.372;2024-02-26T11:02:29;2.07;;;1.70;;
8098;SDS011;4092;47.876;9.372;2024-02-26T11:04:58;2.70;;;2.03;;
8098;SDS011;4092;47.876;9.372;2024-02-26T11:07:28;3.03;;;1.83;;
8098;SDS011;4092;47.876;9.372;2024-02-26T11:09:57;2.40;;;1.67;;
8098;SDS011;4092;47.876;9.372;2024-02-26T11:12:26;3.03;;;2.20;;
8098;SDS011;4092;47.876;9.372;2024-02-26T11:14:56;1.60;;;1.20;;
8098;SDS011;4092;47.876;9.372;2024-02-26T11:17:26;3.03;;;1.50;;
8098;SDS011;4092;47.876;9.372;2024-02-26T11:19:56;1.70;;;1.50;;
8098;SDS011;4092;47.876;9.372;2024-02-26T11:22:24;2.60;;;2.13;;
8098;SDS011;4092;47.876;9.372;2024-02-26T11:24:52;1.43;;;1.20;;
8098;SDS011;4092;47.876;9.372;2024-02-26T11:27:23;1.43;;;1.33;;
8098;SDS011;4092;47.876;9.372;2024-02-26T11:29:56;2.33;;;1.63;;
8098;SDS011;4092;47.876;9.372;2024-02-26T11:32:26;2.00;;;1.80;;
8098;SDS011;4092;47.876;9.372;2024-02-26T11:34:55;1.80;;;1.40;;
8098;SDS011;4092;47.876;9.372;2024-02-26T11:37:23;2.37;;;1.33;;
8098;SDS011;4092;47.876;9.372;2024-02-26T11:39:51;1.63;;;1.30;;
8098;SDS011;4092;47.876;9.372;2024-02-26T11:42:22;1.97;;;1.50;;
8098;SDS011;4092;47.876;9.372;2024-02-26T11:44:50;3.73;;;1.63;;
8098;SDS011;4092;47.876;9.372;2024-02-26T11:47:20;2.90;;;1.30;;
8098;SDS011;4092;47.876;9.372;2024-02-26T11:49:48;3.57;;;1.63;;
8098;SDS011;4092;47.876;9.372;2024-02-26T11:52:15;1.70;;;1.10;;
8098;SDS011;4092;47.876;9.372;2024-02-26T11:54:43;1.93;;;1.20;;
8098;SDS011;4092;47.876;9.372;2024-02-26T11:57:24;3.63;;;1.93;;
8098;SDS011;4092;47.876;9.372;2024-02-26T11:59:52;2.50;;;1.43;;
8098;SDS011;4092;47.876;9.372;2024-02-26T12:02:39;2.27;;;1.87;;
8098;SDS011;4092;47.876;9.372;2024-02-26T12:05:09;2.83;;;1.80;;
8098;SDS011;4092;47.876;9.372;2024-02-26T12:07:39;1.93;;;1.00;;
8098;SDS011;4092;47.876;9.372;2024-02-26T12:10:14;2.20;;;1.10;;
8098;SDS011;4092;47.876;9.372;2024-02-26T12:12:46;4.57;;;1.30;;
8098;SDS011;4092;47.876;9.372;2024-02-26T12:15:14;2.33;;;2.13;;
8098;SDS011;4092;47.876;9.372;2024-02-26T12:17:48;3.20;;;1.60;;
8098;SDS011;4092;47.876;9.372;2024-02-26T12:20:16;3.77;;;1.43;;
8098;SDS011;4092;47.876;9.372;2024-02-26T12:22:45;3.63;;;1.57;;
8098;SDS011;4092;47.876;9.372;2024-02-26T12:25:13;2.90;;;1.67;;
8098;SDS011;4092;47.876;9.372;2024-02-26T12:27:40;4.67;;;1.37;;
8098;SDS011;4092;47.876;9.372;2024-02-26T12:30:08;1.53;;;1.10;;
8098;SDS011;4092;47.876;9.372;2024-02-26T12:32:36;2.20;;;1.77;;
8098;SDS011;4092;47.876;9.372;2024-02-26T12:35:05;4.10;;;1.63;;
8098;SDS011;4092;47.876;9.372;2024-02-26T12:37:33;2.07;;;1.30;;
8098;SDS011;4092;47.876;9.372;2024-02-26T12:40:03;3.10;;;2.10;;
8098;SDS011;4092;47.876;9.372;2024-02-26T12:42:32;2.60;;;2.40;;
8098;SDS011;4092;47.876;9.372;2024-02-26T12:45:04;2.10;;;1.47;;
8098;SDS011;4092;47.876;9.372;2024-02-26T12:47:35;2.60;;;2.00;;
8098;SDS011;4092;47.876;9.372;2024-02-26T12:50:05;5.77;;;1.90;;
8098;SDS011;4092;47.876;9.372;2024-02-26T12:52:33;5.53;;;1.60;;
8098;SDS011;4092;47.876;9.372;2024-02-26T12:55:01;1.40;;;1.30;;
8098;SDS011;4092;47.876;9.372;2024-02-26T12:57:29;2.90;;;1.90;;
8098;SDS011;4092;47.876;9.372;2024-02-26T13:00:00;1.50;;;1.27;;
8098;SDS011;4092;47.876;9.372;2024-02-26T13:02:28;3.50;;;1.60;;
8098;SDS011;4092;47.876;9.372;2024-02-26T13:04:57;1.43;;;1.03;;
8098;SDS011;4092;47.876;9.372;2024-02-26T13:07:27;2.43;;;1.27;;
8098;SDS011;4092;47.876;9.372;2024-02-26T13:09:55;1.90;;;1.40;;
8098;SDS011;4092;47.876;9.372;2024-02-26T13:12:22;2.17;;;1.43;;
8098;SDS011;4092;47.876;9.372;2024-02-26T13:14:58;2.90;;;1.33;;
8098;SDS011;4092;47.876;9.372;2024-02-26T13:17:25;2.50;;;1.30;;
8098;SDS011;4092;47.876;9.372;2024-02-26T13:19:53;1.70;;;1.20;;
8098;SDS011;4092;47.876;9.372;2024-02-26T13:22:20;1.30;;;0.90;;
8098;SDS011;4092;47.876;9.372;2024-02-26T13:24:59;1.40;;;0.90;;
8098;SDS011;4092;47.876;9.372;2024-02-26T13:27:28;5.40;;;1.67;;
8098;SDS011;4092;47.876;9.372;2024-02-26T13:30:05;3.53;;;1.70;;
8098;SDS011;4092;47.876;9.372;2024-02-26T13:32:36;2.07;;;1.40;;
8098;SDS011;4092;47.876;9.372;2024-02-26T13:35:05;2.10;;;1.47;;
8098;SDS011;4092;47.876;9.372;2024-02-26T13:37:33;1.83;;;1.47;;
8098;SDS011;4092;47.876;9.372;2024-02-26T13:40:02;2.90;;;1.40;;
8098;SDS011;4092;47.876;9.372;2024-02-26T13:42:32;7.20;;;2.30;;
8098;SDS011;4092;47.876;9.372;2024-02-26T13:44:59;2.03;;;1.53;;
8098;SDS011;4092;47.876;9.372;2024-02-26T13:47:26;2.93;;;2.20;;
8098;SDS011;4092;47.876;9.372;2024-02-26T13:49:53;3.67;;;2.00;;
8098;SDS011;4092;47.876;9.372;2024-02-26T13:52:21;4.97;;;2.60;;
8098;SDS011;4092;47.876;9.372;2024-02-26T13:54:48;2.00;;;1.30;;
8098;SDS011;4092;47.876;9.372;2024-02-26T13:57:17;5.10;;;2.10;;
8098;SDS011;4092;47.876;9.372;2024-02-26T13:59:45;3.13;;;1.87;;
8098;SDS011;4092;47.876;9.372;2024-02-26T14:02:12;3.57;;;2.00;;
8098;SDS011;4092;47.876;9.372;2024-02-26T14:04:40;4.73;;;2.20;;
8098;SDS011;4092;47.876;9.372;2024-02-26T14:07:07;2.37;;;1.40;;
8098;SDS011;4092;47.876;9.372;2024-02-26T14:09:34;2.10;;;1.40;;
8098;SDS011;4092;47.876;9.372;2024-02-26T14:12:01;2.87;;;1.87;;
8098;SDS011;4092;47.876;9.372;2024-02-26T14:14:30;3.67;;;2.10;;
8098;SDS011;4092;47.876;9.372;2024-02-26T14:17:00;5.23;;;1.90;;
8098;SDS011;4092;47.876;9.372;2024-02-26T14:19:28;1.70;;;1.60;;
8098;SDS011;4092;47.876;9.372;2024-02-26T14:21:55;1.93;;;1.53;;
8098;SDS011;4092;47.876;9.372;2024-02-26T14:24:22;3.40;;;1.20;;
8098;SDS011;4092;47.876;9.372;2024-02-26T14:26:49;2.67;;;1.40;;
8098;SDS011;4092;47.876;9.372;2024-02-26T14:29:16;2.80;;;1.27;;
8098;SDS011;4092;47.876;9.372;2024-02-26T14:31:45;3.97;;;2.07;;
8098;SDS011;4092;47.876;9.372;2024-02-26T14:34:12;1.93;;;1.53;;
8098;SDS011;4092;47.876;9.372;2024-02-26T14:36:39;7.00;;;2.40;;
8098;SDS011;4092;47.876;9.372;2024-02-26T14:39:06;4.40;;;2.33;;
8098;SDS011;4092;47.876;9.372;2024-02-26T14:41:36;1.50;;;1.10;;
8098;SDS011;4092;47.876;9.372;2024-02-26T14:44:03;5.40;;;2.70;;
8098;SDS011;4092;47.876;9.372;2024-02-26T14:46:30;5.47;;;2.93;;
8098;SDS011;4092;47.876;9.372;2024-02-26T14:48:58;2.70;;;1.70;;
8098;SDS011;4092;47.876;9.372;2024-02-26T14:51:25;2.77;;;1.43;;
8098;SDS011;4092;47.876;9.372;2024-02-26T14:53:52;1.70;;;0.90;;
8098;SDS011;4092;47.876;9.372;2024-02-26T14:56:19;4.10;;;1.77;;
8098;SDS011;4092;47.876;9.372;2024-02-26T14:58:46;1.97;;;1.50;;
8098;SDS011;4092;47.876;9.372;2024-02-26T15:01:13;1.43;;;1.23;;
8098;SDS011;4092;47.876;9.372;2024-02-26T15:03:40;1.77;;;1.43;;
8098;SDS011;4092;47.876;9.372;2024-02-26T15:06:09;3.10;;;1.57;;
8098;SDS011;4092;47.876;9.372;2024-02-26T15:08:36;1.77;;;1.20;;
8098;SDS011;4092;47.876;9.372;2024-02-26T15:11:03;1.53;;;1.20;;
8098;SDS011;4092;47.876;9.372;2024-02-26T15:13:30;1.67;;;1.23;;
8098;SDS011;4092;47.876;9.372;2024-02-26T15:15:57;4.53;;;1.13;;
8098;SDS011;4092;47.876;9.372;2024-02-26T15:18:24;1.20;;;0.90;;